Time;durP1;ratioP1;P1;durP2;ratioP2;P2;SDS_P1;SDS_P2;PMS_P1;PMS_P2;Temp;Humidity;BMP_temperature;BMP_pressure;BME280_temperature;BME280_humidity;BME280_pressure;Samples;Min_cycle;Max_cycle;Signal;HPM_P1;HPM_P2
2022/12/07 00:01:15;;;;;;;16.20;14.73;;;4.40;99.90;;;;;;5092486;28;20185;-73
2022/12/07 00:03:42;;;;;;;19.63;18.03;;;4.40;99.90;;;;;;5092366;28;20188;-73
2022/12/07 00:06:11;;;;;;;21.97;20.43;;;4.40;99.90;;;;;;5091245;28;20208;-74
2022/12/07 00:08:37;;;;;;;32.63;30.37;;;4.40;99.90;;;;;;5086358;28;20613;-74
2022/12/07 00:11:04;;;;;;;37.67;34.77;;;4.40;99.90;;;;;;5077580;28;20242;-74
2022/12/07 00:13:31;;;;;;;39.37;36.93;;;4.40;99.90;;;;;;5085424;28;20597;-74
2022/12/07 00:16:06;;;;;;;44.27;41.47;;;4.40;99.90;;;;;;5091471;28;20669;-74
2022/12/07 00:18:32;;;;;;;38.23;35.73;;;4.40;99.90;;;;;;5090385;28;20221;-74
2022/12/07 00:21:07;;;;;;;44.63;41.77;;;4.40;99.90;;;;;;5091864;28;20176;-74
2022/12/07 00:23:33;;;;;;;44.50;41.70;;;4.40;99.90;;;;;;5091490;28;20186;-74
2022/12/07 00:26:12;;;;;;;43.80;41.03;;;4.50;99.90;;;;;;5091564;28;20212;-75
2022/12/07 00:28:38;;;;;;;43.77;41.10;;;4.40;99.90;;;;;;5090014;28;20278;-73
2022/12/07 00:31:10;;;;;;;46.27;43.27;;;4.50;99.90;;;;;;5081438;28;20185;-72
2022/12/07 00:33:36;;;;;;;48.77;45.77;;;4.40;99.90;;;;;;5076017;28;20178;-72
2022/12/07 00:36:05;;;;;;;47.33;44.47;;;4.50;99.90;;;;;;5099831;22;20239;-73
2022/12/07 00:38:35;;;;;;;29.00;26.90;;;4.50;99.90;;;;;;5090807;28;20237;-73
2022/12/07 00:41:06;;;;;;;21.43;19.43;;;4.40;99.90;;;;;;5091548;28;21136;-73
2022/12/07 00:43:32;;;;;;;26.60;24.53;;;4.40;99.90;;;;;;5091244;28;20189;-73
2022/12/07 00:45:58;;;;;;;34.53;31.90;;;4.40;99.90;;;;;;5097353;28;20215;-73
2022/12/07 00:48:25;;;;;;;35.40;32.90;;;4.40;99.90;;;;;;5110845;28;20186;-73
2022/12/07 00:50:51;;;;;;;29.77;27.43;;;4.40;99.90;;;;;;5112028;28;20176;-73
2022/12/07 00:53:17;;;;;;;28.43;26.23;;;4.40;99.90;;;;;;5102266;28;20241;-74
2022/12/07 00:55:43;;;;;;;27.07;24.97;;;4.40;99.90;;;;;;5108249;28;20294;-73
2022/12/07 00:58:09;;;;;;;29.57;27.33;;;4.50;99.90;;;;;;5110285;28;20183;-74
2022/12/07 01:00:36;;;;;;;35.70;33.20;;;4.40;99.90;;;;;;5112487;28;20182;-73
2022/12/07 01:03:03;;;;;;;39.57;36.87;;;4.40;99.90;;;;;;5104193;28;20194;-73
2022/12/07 01:05:29;;;;;;;41.37;38.50;;;4.40;99.90;;;;;;5090964;28;20696;-74
2022/12/07 01:07:55;;;;;;;43.13;40.23;;;4.40;99.90;;;;;;5089415;28;20204;-73
2022/12/07 01:10:20;;;;;;;41.43;38.67;;;4.40;99.90;;;;;;5090817;28;20187;-73
2022/12/07 01:12:46;;;;;;;45.73;42.43;;;4.40;99.90;;;;;;5120093;28;20255;-73
2022/12/07 01:15:12;;;;;;;47.33;44.30;;;4.40;99.90;;;;;;5111996;28;20271;-73
2022/12/07 01:17:38;;;;;;;47.47;43.87;;;4.30;99.90;;;;;;5109738;28;20233;-74
2022/12/07 01:20:05;;;;;;;44.97;41.97;;;4.30;99.90;;;;;;5111775;28;20179;-73
2022/12/07 01:22:30;;;;;;;43.20;40.30;;;4.30;99.90;;;;;;5108467;28;20186;-73
2022/12/07 01:24:56;;;;;;;44.17;41.10;;;4.30;99.90;;;;;;5089853;28;20275;-73
2022/12/07 01:27:22;;;;;;;47.30;44.07;;;4.30;99.90;;;;;;5089602;28;20216;-73
2022/12/07 01:29:47;;;;;;;49.03;45.93;;;4.20;99.90;;;;;;5090704;28;20194;-73
2022/12/07 01:32:13;;;;;;;47.43;44.23;;;4.20;99.90;;;;;;5090662;28;20184;-73
2022/12/07 01:34:39;;;;;;;43.70;40.60;;;4.20;99.90;;;;;;5110918;28;20205;-74
2022/12/07 01:37:05;;;;;;;43.50;40.50;;;4.20;99.90;;;;;;5110586;28;20795;-74
2022/12/07 01:39:30;;;;;;;46.07;42.43;;;4.10;99.90;;;;;;5110791;28;20223;-73
2022/12/07 01:41:56;;;;;;;46.27;43.17;;;4.20;99.90;;;;;;5110986;28;20679;-73
2022/12/07 01:44:31;;;;;;;47.40;44.33;;;4.10;99.90;;;;;;5092597;28;20195;-74
2022/12/07 01:47:02;;;;;;;45.23;42.27;;;4.20;99.90;;;;;;5090182;28;20237;-73
2022/12/07 01:49:36;;;;;;;46.67;43.53;;;4.10;99.90;;;;;;5090457;28;20213;-73
2022/12/07 01:52:17;;;;;;;45.43;42.20;;;4.10;99.90;;;;;;5090537;28;20185;-73
2022/12/07 01:54:45;;;;;;;46.33;43.37;;;4.10;99.90;;;;;;5070188;28;20314;-73
2022/12/07 01:57:14;;;;;;;45.13;42.00;;;4.10;99.90;;;;;;5069803;28;20672;-74
2022/12/07 01:59:41;;;;;;;39.67;36.93;;;4.00;99.90;;;;;;5070177;28;20287;-74
2022/12/07 02:02:11;;;;;;;40.40;37.70;;;4.00;99.90;;;;;;5070107;28;20195;-73
2022/12/07 02:04:37;;;;;;;36.00;33.37;;;4.00;99.90;;;;;;5108684;28;20236;-74
2022/12/07 02:07:05;;;;;;;30.40;28.13;;;4.00;99.90;;;;;;5110087;28;20752;-74
2022/12/07 02:09:30;;;;;;;25.47;23.27;;;4.10;99.90;;;;;;5109508;28;20668;-74
2022/12/07 02:11:57;;;;;;;22.70;20.67;;;4.00;99.90;;;;;;5110663;28;20179;-74
2022/12/07 02:14:22;;;;;;;19.43;17.73;;;4.00;99.90;;;;;;5093344;28;20691;-73
2022/12/07 02:17:14;;;;;;;17.70;16.07;;;4.00;99.90;;;;;;5088782;28;20201;-74
2022/12/07 02:20:03;;;;;;;20.40;18.57;;;4.00;99.90;;;;;;5090181;28;20202;-73
2022/12/07 02:22:43;;;;;;;20.67;18.80;;;3.90;99.90;;;;;;5091636;28;20191;-73
2022/12/07 02:25:16;;;;;;;20.00;18.23;;;3.90;99.90;;;;;;5112475;28;20212;-73
2022/12/07 02:27:56;;;;;;;19.40;17.43;;;3.90;99.90;;;;;;5112663;28;20604;-73
2022/12/07 02:30:28;;;;;;;15.67;13.90;;;3.90;99.90;;;;;;5109651;28;20229;-74
2022/12/07 02:33:14;;;;;;;14.57;13.07;;;3.90;99.90;;;;;;5105906;28;20528;-74
2022/12/07 02:35:42;;;;;;;14.90;13.40;;;3.90;99.90;;;;;;5090003;28;20757;-74
2022/12/07 02:38:40;;;;;;;14.63;12.07;;;3.90;99.90;;;;;;5091317;28;20679;-73
2022/12/07 02:41:23;;;;;;;15.07;13.53;;;3.90;99.90;;;;;;5090781;28;20196;-74
2022/12/07 02:43:56;;;;;;;15.73;14.07;;;3.90;99.90;;;;;;5095025;28;20208;-73
2022/12/07 02:46:41;;;;;;;14.87;13.43;;;3.90;99.90;;;;;;5093754;28;20223;-73
2022/12/07 02:49:08;;;;;;;14.70;13.17;;;4.00;99.90;;;;;;5094537;28;20180;-73
2022/12/07 02:51:40;;;;;;;15.10;13.13;;;3.90;99.90;;;;;;5093732;28;20273;-73
2022/12/07 02:54:24;;;;;;;16.83;13.50;;;3.90;99.90;;;;;;5106637;28;20187;-73
2022/12/07 02:57:12;;;;;;;15.13;12.00;;;3.90;99.90;;;;;;5118052;28;20198;-73
2022/12/07 03:00:01;;;;;;;14.20;12.20;;;3.80;99.90;;;;;;5128584;28;20203;-73
2022/12/07 03:02:39;;;;;;;14.70;12.13;;;3.80;99.90;;;;;;5113777;28;20194;-73
2022/12/07 03:05:26;;;;;;;14.93;12.50;;;3.80;99.90;;;;;;5073367;28;20218;-73
2022/12/07 03:08:25;;;;;;;13.60;11.37;;;3.80;99.90;;;;;;5071793;28;20235;-74
2022/12/07 03:11:20;;;;;;;13.00;11.10;;;3.70;99.90;;;;;;5073153;28;20255;-73
2022/12/07 03:13:55;;;;;;;14.37;12.23;;;3.70;99.90;;;;;;5093999;28;20189;-74
2022/12/07 03:16:33;;;;;;;14.23;12.43;;;3.70;99.90;;;;;;5113479;28;20206;-74
2022/12/07 03:19:03;;;;;;;14.27;12.77;;;3.70;99.90;;;;;;5111969;28;20186;-73
2022/12/07 03:21:36;;;;;;;15.57;13.97;;;3.70;99.90;;;;;;5113618;28;20647;-74
2022/12/07 03:24:12;;;;;;;20.10;18.03;;;3.70;99.90;;;;;;5099458;28;20193;-73
2022/12/07 03:26:46;;;;;;;25.93;23.83;;;3.80;99.90;;;;;;5091774;28;20216;-73
2022/12/07 03:29:19;;;;;;;36.07;33.53;;;3.70;99.90;;;;;;5092906;28;20175;-74
2022/12/07 03:31:50;;;;;;;51.67;47.93;;;3.70;99.90;;;;;;5093299;28;20756;-73
2022/12/07 03:34:20;;;;;;;45.03;41.87;;;3.60;99.90;;;;;;5106224;28;20270;-74
2022/12/07 03:37:10;;;;;;;33.43;31.03;;;3.60;99.90;;;;;;5112066;28;20242;-72
2022/12/07 03:39:44;;;;;;;25.70;23.63;;;3.60;99.90;;;;;;5112276;28;20187;-73
2022/12/07 03:42:11;;;;;;;23.30;21.27;;;3.60;99.90;;;;;;5111972;28;20557;-73
2022/12/07 03:44:37;;;;;;;31.00;28.70;;;3.60;99.90;;;;;;5095469;28;20220;-73
2022/12/07 03:47:15;;;;;;;32.27;30.07;;;3.50;99.90;;;;;;5092290;28;20213;-73
2022/12/07 03:49:41;;;;;;;17.03;15.33;;;3.40;99.90;;;;;;5092384;28;20271;-78
2022/12/07 03:52:30;;;;;;;12.63;11.37;;;3.40;99.90;;;;;;5094220;28;20213;-73
2022/12/07 03:55:18;;;;;;;12.87;11.03;;;3.40;99.90;;;;;;5112469;28;20180;-72
2022/12/07 03:57:49;;;;;;;11.97;10.70;;;3.40;99.90;;;;;;5112927;28;20645;-72
2022/12/07 04:00:15;;;;;;;13.77;12.37;;;3.40;99.90;;;;;;5113179;28;20636;-72
2022/12/07 04:02:42;;;;;;;13.20;11.90;;;3.30;99.90;;;;;;5110222;28;20180;-72
2022/12/07 04:05:09;;;;;;;13.80;12.27;;;3.40;99.90;;;;;;5100047;28;20212;-74
2022/12/07 04:07:35;;;;;;;16.57;11.37;;;3.30;99.90;;;;;;5091894;28;20200;-74
2022/12/07 04:10:01;;;;;;;15.30;12.50;;;3.20;99.90;;;;;;5087539;28;20242;-74
2022/12/07 04:12:26;;;;;;;13.30;11.90;;;3.20;99.90;;;;;;5088691;28;20180;-74
2022/12/07 04:14:52;;;;;;;14.37;12.50;;;3.20;99.90;;;;;;5092078;28;20176;-74
2022/12/07 04:17:18;;;;;;;16.90;11.50;;;3.10;99.90;;;;;;5095367;28;20678;-74
2022/12/07 04:19:43;;;;;;;12.77;11.47;;;3.10;99.90;;;;;;5091900;28;20192;-74
2022/12/07 04:22:09;;;;;;;11.80;10.60;;;3.00;99.90;;;;;;5092607;28;20242;-75
2022/12/07 04:24:35;;;;;;;13.10;11.70;;;3.00;99.90;;;;;;5091913;28;20234;-74
2022/12/07 04:27:01;;;;;;;13.47;12.10;;;2.90;99.90;;;;;;5095141;28;20229;-74
2022/12/07 04:29:27;;;;;;;17.37;13.97;;;2.80;99.90;;;;;;5098402;28;20194;-73
2022/12/07 04:31:53;;;;;;;16.00;12.90;;;2.70;99.90;;;;;;5099485;28;20211;-75
2022/12/07 04:34:19;;;;;;;13.10;11.90;;;2.70;99.90;;;;;;5091004;28;20185;-74
2022/12/07 04:36:46;;;;;;;13.03;11.67;;;2.60;99.90;;;;;;5090451;28;20265;-74
2022/12/07 04:39:24;;;;;;;14.50;13.07;;;2.50;99.90;;;;;;5090592;28;20649;-74
2022/12/07 04:41:50;;;;;;;33.53;31.03;;;2.50;99.90;;;;;;5090880;28;20716;-74
2022/12/07 04:44:17;;;;;;;29.97;27.13;;;2.50;99.90;;;;;;5102912;28;20179;-73
2022/12/07 04:46:44;;;;;;;30.53;28.03;;;2.50;99.90;;;;;;5094090;28;20719;-74
2022/12/07 04:49:11;;;;;;;20.00;18.07;;;2.60;99.90;;;;;;5092033;28;20173;-73
2022/12/07 04:51:36;;;;;;;17.13;14.83;;;2.60;99.90;;;;;;5079199;28;20554;-74
2022/12/07 04:54:02;;;;;;;18.90;16.90;;;2.60;99.90;;;;;;5072350;28;20181;-74
2022/12/07 04:56:28;;;;;;;17.67;13.83;;;2.60;99.90;;;;;;5077470;28;20205;-74
2022/12/07 04:58:55;;;;;;;17.37;13.77;;;2.60;99.90;;;;;;5090754;28;20180;-74
2022/12/07 05:01:22;;;;;;;26.10;23.83;;;2.60;99.90;;;;;;5091264;28;20188;-74
2022/12/07 05:03:47;;;;;;;23.87;21.30;;;2.50;99.90;;;;;;5091376;28;20204;-74
2022/12/07 05:06:14;;;;;;;23.27;21.10;;;2.60;99.90;;;;;;5090722;28;20250;-74
2022/12/07 05:08:40;;;;;;;22.07;19.90;;;2.70;99.90;;;;;;5090613;28;20672;-73
2022/12/07 05:11:07;;;;;;;26.37;23.93;;;2.80;99.90;;;;;;5091133;28;20180;-73
2022/12/07 05:13:34;;;;;;;29.53;26.97;;;2.70;99.90;;;;;;5091041;28;20181;-73
2022/12/07 05:16:00;;;;;;;29.77;27.20;;;2.80;99.90;;;;;;5090849;28;20200;-73
2022/12/07 05:18:26;;;;;;;40.00;31.67;;;2.80;99.90;;;;;;5090698;28;20538;-73
2022/12/07 05:20:52;;;;;;;32.73;29.60;;;2.90;99.90;;;;;;5090483;28;20183;-73
2022/12/07 05:23:18;;;;;;;25.07;22.57;;;2.90;99.90;;;;;;5091175;28;20282;-73
2022/12/07 05:25:44;;;;;;;22.13;18.83;;;2.90;99.90;;;;;;5090626;28;20226;-73
2022/12/07 05:28:10;;;;;;;20.30;17.97;;;2.90;99.90;;;;;;5090660;28;20625;-73
2022/12/07 05:30:36;;;;;;;19.10;17.10;;;3.00;99.90;;;;;;5090745;28;20219;-72
2022/12/07 05:33:02;;;;;;;22.87;20.63;;;3.00;99.90;;;;;;5091074;28;20199;-72
2022/12/07 05:35:28;;;;;;;23.27;20.90;;;3.00;99.90;;;;;;5088697;28;20214;-72
2022/12/07 05:37:55;;;;;;;24.83;22.40;;;3.00;99.90;;;;;;5088010;28;20199;-73
2022/12/07 05:40:21;;;;;;;22.20;20.07;;;2.90;99.90;;;;;;5089615;28;20182;-72
2022/12/07 05:42:47;;;;;;;16.67;13.87;;;2.90;99.90;;;;;;5088318;28;20189;-72
2022/12/07 05:45:12;;;;;;;19.20;14.83;;;2.90;99.90;;;;;;5089841;28;20210;-73
2022/12/07 05:47:38;;;;;;;24.57;16.17;;;2.80;99.90;;;;;;5088115;28;20259;-73
2022/12/07 05:50:05;;;;;;;18.20;16.20;;;2.80;99.90;;;;;;5089662;28;20186;-73
2022/12/07 05:52:32;;;;;;;19.07;16.43;;;2.80;99.90;;;;;;5089659;28;20180;-73
2022/12/07 05:54:57;;;;;;;17.80;15.83;;;2.80;99.90;;;;;;5088647;28;20203;-74
2022/12/07 05:57:23;;;;;;;19.33;16.03;;;2.90;99.90;;;;;;5089103;28;20203;-73
2022/12/07 05:59:49;;;;;;;19.33;15.43;;;2.90;99.90;;;;;;5089875;28;20226;-73
2022/12/07 06:02:17;;;;;;;17.10;15.30;;;2.90;99.90;;;;;;5089614;28;20180;-73
2022/12/07 06:04:45;;;;;;;20.83;14.63;;;2.90;99.90;;;;;;5089390;28;20184;-70
2022/12/07 06:07:13;;;;;;;18.17;16.17;;;2.90;99.90;;;;;;5089419;28;20257;-71
2022/12/07 06:09:39;;;;;;;19.40;16.37;;;3.00;99.90;;;;;;5090007;28;20188;-68
2022/12/07 06:14:49;;;;;;;16.67;14.97;;;2.90;99.90;;;;;;5093125;28;20214;-68
2022/12/07 06:17:15;;;;;;;17.97;15.07;;;3.00;99.90;;;;;;5092690;28;20211;-68
2022/12/07 06:19:42;;;;;;;15.87;14.20;;;3.00;99.90;;;;;;5091549;28;20188;-68
2022/12/07 06:22:10;;;;;;;18.33;16.13;;;2.90;99.90;;;;;;5092002;28;20188;-75
2022/12/07 06:24:36;;;;;;;16.60;14.40;;;2.90;99.90;;;;;;5091222;28;20184;-75
2022/12/07 06:27:02;;;;;;;19.67;14.80;;;2.80;99.90;;;;;;5091493;28;20221;-76
2022/12/07 06:29:28;;;;;;;20.40;15.97;;;2.80;99.90;;;;;;5092934;28;20181;-75
2022/12/07 06:31:53;;;;;;;22.07;17.17;;;2.70;99.90;;;;;;5108420;28;20213;-75
2022/12/07 06:34:22;;;;;;;20.40;18.07;;;2.70;99.90;;;;;;5093910;28;20297;-74
2022/12/07 06:36:51;;;;;;;18.70;16.73;;;2.70;99.90;;;;;;5060191;22;1122166;-71
2022/12/07 06:39:22;;;;;;;17.53;15.23;;;2.70;99.90;;;;;;5056033;28;20179;-71
2022/12/07 06:41:48;;;;;;;24.23;20.57;;;2.70;99.90;;;;;;5073791;28;20208;-71
2022/12/07 06:44:14;;;;;;;45.60;42.00;;;2.70;99.90;;;;;;5055891;28;20173;-71
2022/12/07 06:46:40;;;;;;;34.30;31.43;;;2.80;99.90;;;;;;5055705;28;20564;-71
2022/12/07 06:49:06;;;;;;;36.13;33.30;;;2.80;99.90;;;;;;5073159;28;20178;-72
2022/12/07 06:51:35;;;;;;;32.77;30.17;;;2.80;99.90;;;;;;5055652;28;20232;-72
2022/12/07 06:54:00;;;;;;;37.13;33.93;;;2.80;99.90;;;;;;5073706;28;20182;-73
2022/12/07 06:56:26;;;;;;;32.13;29.63;;;2.90;99.90;;;;;;5073537;28;20203;-71
2022/12/07 06:58:52;;;;;;;28.97;26.53;;;2.90;99.90;;;;;;5073098;28;20184;-71
2022/12/07 07:01:18;;;;;;;26.73;24.33;;;2.90;99.90;;;;;;5073476;28;20685;-73
2022/12/07 07:03:45;;;;;;;27.20;24.97;;;2.90;99.90;;;;;;5055572;28;20183;-72
2022/12/07 07:06:12;;;;;;;27.57;25.07;;;2.90;99.90;;;;;;5073196;28;20224;-72
2022/12/07 07:08:38;;;;;;;27.27;25.00;;;2.90;99.90;;;;;;5073366;28;20177;-71
2022/12/07 07:11:05;;;;;;;27.17;24.63;;;2.90;99.90;;;;;;5073285;28;20200;-71
2022/12/07 07:13:31;;;;;;;27.97;25.70;;;2.90;99.90;;;;;;5055361;28;20623;-71
2022/12/07 07:15:57;;;;;;;28.93;26.53;;;2.90;99.90;;;;;;5073127;28;20285;-71
2022/12/07 07:18:23;;;;;;;28.93;26.47;;;2.90;99.90;;;;;;5072830;28;20188;-71
2022/12/07 07:20:50;;;;;;;31.43;28.93;;;2.90;99.90;;;;;;5055411;28;20657;-71
2022/12/07 07:23:16;;;;;;;22.97;20.67;;;2.90;99.90;;;;;;5073186;28;20230;-71
2022/12/07 07:25:42;;;;;;;23.90;21.80;;;2.90;99.90;;;;;;5071535;28;20266;-71
2022/12/07 07:28:08;;;;;;;17.97;16.23;;;3.00;99.90;;;;;;5072478;28;20176;-71
2022/12/07 07:30:34;;;;;;;19.47;15.37;;;3.00;99.90;;;;;;5072923;28;20657;-71
2022/12/07 07:33:01;;;;;;;17.53;15.70;;;3.00;99.90;;;;;;5072780;28;20272;-71
2022/12/07 07:35:28;;;;;;;19.20;17.10;;;3.00;99.90;;;;;;5073023;28;20188;-70
2022/12/07 07:37:54;;;;;;;16.77;14.30;;;3.10;99.90;;;;;;5073898;28;20208;-70
2022/12/07 07:40:20;;;;;;;20.53;16.83;;;3.10;99.90;;;;;;5072928;28;20188;-71
2022/12/07 07:42:53;;;;;;;18.50;16.23;;;3.20;99.90;;;;;;5054971;28;20185;-70
2022/12/07 07:45:21;;;;;;;20.10;15.37;;;3.20;99.90;;;;;;5072631;28;20176;-70
2022/12/07 07:47:47;;;;;;;18.10;15.53;;;3.20;99.90;;;;;;5071971;28;20670;-70
2022/12/07 07:50:13;;;;;;;18.07;16.27;;;3.30;99.90;;;;;;5056427;28;20185;-72
2022/12/07 07:52:39;;;;;;;17.63;14.67;;;3.30;99.90;;;;;;5074689;28;20245;-72
2022/12/07 07:55:08;;;;;;;16.43;14.23;;;3.30;99.90;;;;;;5072389;28;20174;-72
2022/12/07 07:57:37;;;;;;;18.70;15.53;;;3.30;99.90;;;;;;5054161;28;20203;-72
2022/12/07 08:00:06;;;;;;;19.37;15.20;;;3.30;99.90;;;;;;5072363;28;20211;-72
2022/12/07 08:02:32;;;;;;;18.53;14.67;;;3.30;99.90;;;;;;5054515;28;20238;-72
2022/12/07 08:04:57;;;;;;;18.80;13.93;;;3.40;99.90;;;;;;5054759;28;20185;-72
2022/12/07 08:07:23;;;;;;;18.97;14.53;;;3.40;99.90;;;;;;5071709;28;20354;-72
2022/12/07 08:09:49;;;;;;;19.37;14.27;;;3.50;99.90;;;;;;5072171;28;20190;-72
2022/12/07 08:12:15;;;;;;;20.87;15.93;;;3.50;99.90;;;;;;5054452;28;20184;-72
2022/12/07 08:14:41;;;;;;;19.17;14.57;;;3.60;99.90;;;;;;5071972;28;20182;-72
2022/12/07 08:17:07;;;;;;;18.00;13.57;;;3.60;99.90;;;;;;5053845;28;20198;-72
2022/12/07 08:19:33;;;;;;;23.57;15.40;;;3.60;99.90;;;;;;5071885;28;20249;-73
2022/12/07 08:21:58;;;;;;;18.87;15.20;;;3.70;99.90;;;;;;5054347;28;20561;-72
2022/12/07 08:24:25;;;;;;;19.43;15.57;;;3.70;99.90;;;;;;5071750;28;20292;-72
2022/12/07 08:26:50;;;;;;;23.90;18.50;;;3.80;99.90;;;;;;5070825;28;20208;-72
2022/12/07 08:29:16;;;;;;;18.47;15.07;;;3.80;99.90;;;;;;5071340;28;20188;-72
2022/12/07 08:31:42;;;;;;;16.13;13.30;;;3.90;99.90;;;;;;5053930;28;20177;-72
2022/12/07 08:34:10;;;;;;;16.63;14.17;;;4.00;99.90;;;;;;5071977;28;20556;-72
2022/12/07 08:36:37;;;;;;;21.43;19.40;;;4.00;99.90;;;;;;5053548;28;20216;-72
2022/12/07 08:39:03;;;;;;;28.77;26.07;;;4.10;99.90;;;;;;5071468;28;20210;-72
2022/12/07 08:41:29;;;;;;;34.73;32.00;;;4.20;99.90;;;;;;5071651;28;20181;-72
2022/12/07 08:43:55;;;;;;;35.20;32.13;;;4.30;99.90;;;;;;5053810;28;20196;-72
2022/12/07 08:46:45;;;;;;;23.53;21.07;;;4.30;99.90;;;;;;5071840;28;20305;-72
2022/12/07 08:49:41;;;;;;;15.33;13.50;;;4.40;99.90;;;;;;5052702;28;20692;-72
2022/12/07 08:52:07;;;;;;;15.87;12.73;;;4.50;99.90;;;;;;5064171;28;20692;-71
2022/12/07 08:54:36;;;;;;;19.10;13.40;;;4.60;99.90;;;;;;5053401;28;20178;-71
2022/12/07 08:57:03;;;;;;;14.17;12.20;;;4.60;99.90;;;;;;5053007;28;20471;-71
2022/12/07 08:59:29;;;;;;;16.37;14.77;;;4.60;99.90;;;;;;5075579;28;20268;-71
2022/12/07 09:01:55;;;;;;;16.93;15.33;;;4.70;99.90;;;;;;5053411;28;20193;-72
2022/12/07 09:04:21;;;;;;;20.53;18.43;;;4.80;99.90;;;;;;5071763;28;20224;-71
2022/12/07 09:06:47;;;;;;;24.33;22.40;;;4.90;99.90;;;;;;5070835;28;20789;-71
2022/12/07 09:09:14;;;;;;;25.83;23.37;;;4.90;99.90;;;;;;5053591;28;20205;-71
2022/12/07 09:11:40;;;;;;;24.43;22.10;;;5.00;99.90;;;;;;5053357;28;20260;-71
2022/12/07 09:14:06;;;;;;;18.77;16.93;;;5.00;99.90;;;;;;5071150;28;20260;-73
2022/12/07 09:16:32;;;;;;;18.63;16.80;;;5.20;99.90;;;;;;5053256;28;20215;-71
2022/12/07 09:18:57;;;;;;;17.73;13.80;;;5.30;99.90;;;;;;5070628;28;20545;-71
2022/12/07 09:21:23;;;;;;;16.27;14.57;;;5.30;99.90;;;;;;5071504;28;20232;-71
2022/12/07 09:23:49;;;;;;;14.57;13.13;;;5.30;99.90;;;;;;5071291;28;20177;-71
2022/12/07 09:26:15;;;;;;;14.73;13.23;;;5.40;99.90;;;;;;5053113;28;20484;-71
2022/12/07 09:28:41;;;;;;;16.17;14.73;;;5.50;99.90;;;;;;5070865;28;20178;-73
2022/12/07 09:31:06;;;;;;;18.53;17.13;;;5.70;99.90;;;;;;5071125;28;20219;-71
2022/12/07 09:33:32;;;;;;;15.13;13.83;;;5.80;99.90;;;;;;5071231;28;20557;-72
2022/12/07 09:35:58;;;;;;;12.37;11.17;;;5.80;99.90;;;;;;5070641;28;20209;-72
2022/12/07 09:38:26;;;;;;;13.43;12.13;;;5.90;99.90;;;;;;5070597;28;20196;-72
2022/12/07 09:40:54;;;;;;;15.37;11.13;;;5.90;99.90;;;;;;5070821;28;20229;-72
2022/12/07 09:43:22;;;;;;;12.70;10.13;;;5.90;99.90;;;;;;5070759;28;20189;-72
2022/12/07 09:45:53;;;;;;;10.43;9.43;;;5.80;99.90;;;;;;5070601;28;20741;-72
2022/12/07 09:48:29;;;;;;;11.47;10.37;;;5.80;99.90;;;;;;5072925;28;20177;-72
2022/12/07 09:50:56;;;;;;;12.20;10.80;;;5.80;99.90;;;;;;5075525;28;20271;-72
2022/12/07 09:53:34;;;;;;;11.73;10.30;;;5.70;99.90;;;;;;5056972;28;20260;-72
2022/12/07 09:56:00;;;;;;;10.90;9.80;;;5.80;99.90;;;;;;5074728;28;20201;-72
2022/12/07 09:58:29;;;;;;;11.17;9.93;;;6.00;99.90;;;;;;5074617;28;20251;-72
2022/12/07 10:01:01;;;;;;;11.37;9.67;;;6.10;99.90;;;;;;5056877;28;20603;-72
2022/12/07 10:03:28;;;;;;;12.33;11.13;;;6.30;99.90;;;;;;5056681;28;20190;-72
2022/12/07 10:05:55;;;;;;;11.93;10.73;;;6.50;99.90;;;;;;5074429;28;20205;-72
2022/12/07 10:08:21;;;;;;;11.00;10.00;;;6.60;99.90;;;;;;5057419;28;20535;-72
2022/12/07 10:10:52;;;;;;;13.17;11.97;;;6.70;99.90;;;;;;5057020;28;20182;-72
2022/12/07 10:13:33;;;;;;;10.03;9.03;;;6.80;99.90;;;;;;5074786;28;20519;-72
2022/12/07 10:15:59;;;;;;;10.10;9.20;;;6.70;99.90;;;;;;5074284;28;20201;-72
2022/12/07 10:18:28;;;;;;;10.30;9.30;;;6.80;99.90;;;;;;5073882;28;20174;-72
2022/12/07 10:21:11;;;;;;;9.87;8.83;;;6.80;99.90;;;;;;5074253;28;20186;-72
2022/12/07 10:23:39;;;;;;;9.93;8.67;;;6.90;99.90;;;;;;5056528;28;20204;-71
2022/12/07 10:26:46;;;;;;;9.33;8.37;;;6.90;99.90;;;;;;5074028;28;20213;-72
2022/12/07 10:29:11;;;;;;;9.87;8.93;;;6.80;99.90;;;;;;4973251;28;20758;-73
2022/12/07 10:31:39;;;;;;;9.93;8.77;;;6.80;99.90;;;;;;5039456;28;20189;-71
2022/12/07 10:34:24;;;;;;;9.37;8.47;;;6.80;99.90;;;;;;5074266;28;20181;-72
2022/12/07 10:36:51;;;;;;;10.37;9.37;;;6.80;99.90;;;;;;5073718;28;20304;-72
2022/12/07 10:39:22;;;;;;;10.17;9.17;;;6.70;99.90;;;;;;5055936;28;20178;-72
2022/12/07 10:42:00;;;;;;;9.57;8.63;;;6.50;99.90;;;;;;5073903;28;20239;-72
2022/12/07 10:44:34;;;;;;;10.93;9.27;;;6.40;99.90;;;;;;5073790;28;20555;-72
2022/12/07 10:47:18;;;;;;;10.30;9.17;;;6.30;99.90;;;;;;5073431;28;20245;-71
2022/12/07 10:50:02;;;;;;;9.57;8.67;;;6.20;99.90;;;;;;5073698;28;20173;-72
2022/12/07 10:52:45;;;;;;;9.87;8.83;;;6.20;99.90;;;;;;5073826;28;20178;-72
2022/12/07 10:55:24;;;;;;;12.27;8.80;;;6.20;99.90;;;;;;5073765;28;20236;-72
2022/12/07 10:58:03;;;;;;;9.70;8.33;;;6.20;99.90;;;;;;5055349;28;20228;-72
2022/12/07 11:00:56;;;;;;;8.57;7.77;;;6.30;99.90;;;;;;5073635;28;20178;-72
2022/12/07 11:03:41;;;;;;;8.57;7.77;;;6.30;99.90;;;;;;5026682;28;20259;-72
2022/12/07 11:06:13;;;;;;;10.23;7.83;;;6.30;99.90;;;;;;5055791;28;20629;-72
2022/12/07 11:09:01;;;;;;;9.53;8.00;;;6.30;99.90;;;;;;5073000;28;20181;-72
2022/12/07 11:11:38;;;;;;;9.97;7.40;;;6.30;99.90;;;;;;5073301;28;20181;-72
2022/12/07 11:14:10;;;;;;;9.47;7.73;;;6.40;99.90;;;;;;5073245;28;20669;-72
2022/12/07 11:16:48;;;;;;;9.20;7.73;;;6.50;99.90;;;;;;5055722;28;20205;-72
2022/12/07 11:19:22;;;;;;;8.90;8.00;;;6.50;99.90;;;;;;5073877;28;20207;-71
2022/12/07 11:21:59;;;;;;;8.73;7.93;;;6.40;99.90;;;;;;5073089;28;20555;-71
2022/12/07 11:24:30;;;;;;;9.23;8.40;;;6.40;99.90;;;;;;5073311;28;20212;-71
2022/12/07 11:27:34;;;;;;;9.53;7.73;;;6.40;99.90;;;;;;5072624;28;20224;-71
2022/12/07 11:30:22;;;;;;;7.80;7.00;;;6.20;99.90;;;;;;5055113;28;20184;-72
2022/12/07 11:32:57;;;;;;;8.17;7.37;;;6.30;99.90;;;;;;5073189;28;20196;-71
2022/12/07 11:35:48;;;;;;;8.07;7.37;;;6.40;99.90;;;;;;5073013;28;20181;-71
2022/12/07 11:38:16;;;;;;;8.83;7.37;;;6.30;99.90;;;;;;5072497;28;20204;-71
2022/12/07 11:40:52;;;;;;;10.23;7.87;;;6.30;99.90;;;;;;5072707;28;20185;-72
2022/12/07 11:43:34;;;;;;;8.00;7.20;;;6.20;99.90;;;;;;5054916;28;20256;-71
2022/12/07 11:46:13;;;;;;;8.27;7.00;;;6.10;99.90;;;;;;5072628;28;20254;-71
2022/12/07 11:48:53;;;;;;;8.57;7.33;;;6.00;99.90;;;;;;5054390;28;20178;-72
2022/12/07 11:51:21;;;;;;;8.43;7.53;;;6.00;99.90;;;;;;5072811;28;20645;-71
2022/12/07 11:53:55;;;;;;;7.73;7.03;;;6.00;99.90;;;;;;5072742;28;20173;-71
2022/12/07 11:56:25;;;;;;;8.03;7.30;;;6.00;99.90;;;;;;5072508;28;20200;-71
2022/12/07 11:58:53;;;;;;;7.37;6.53;;;5.90;99.90;;;;;;5072254;28;20189;-72
2022/12/07 12:01:37;;;;;;;9.30;6.97;;;5.90;99.90;;;;;;5054857;28;20666;-72
2022/12/07 12:04:06;;;;;;;7.67;6.93;;;5.90;99.90;;;;;;5072527;28;20246;-73
2022/12/07 12:06:34;;;;;;;11.40;9.53;;;5.80;99.90;;;;;;5054548;28;20222;-73
2022/12/07 12:09:18;;;;;;;10.37;8.40;;;5.90;99.90;;;;;;5054256;28;20177;-71
2022/12/07 12:12:11;;;;;;;9.47;8.47;;;5.90;99.90;;;;;;5053866;28;20670;-73
2022/12/07 12:15:03;;;;;;;7.67;6.83;;;5.90;99.90;;;;;;5072353;28;20180;-71
2022/12/07 12:17:41;;;;;;;7.73;7.03;;;6.00;99.90;;;;;;5071802;28;20216;-71
2022/12/07 12:20:20;;;;;;;7.07;6.47;;;6.10;99.90;;;;;;5054501;28;20559;-71
2022/12/07 12:23:12;;;;;;;7.47;6.70;;;6.20;99.90;;;;;;5054722;28;20680;-71
2022/12/07 12:25:40;;;;;;;7.73;6.97;;;6.10;99.90;;;;;;5054168;28;20185;-71
2022/12/07 12:28:18;;;;;;;7.60;6.50;;;6.10;99.90;;;;;;5072058;28;20228;-71
2022/12/07 12:30:44;;;;;;;6.90;6.30;;;6.10;99.90;;;;;;5054585;28;20185;-72
2022/12/07 12:33:30;;;;;;;6.83;6.23;;;6.00;99.90;;;;;;5071954;28;20173;-72
2022/12/07 12:36:30;;;;;;;7.50;6.80;;;6.00;99.90;;;;;;5072413;28;20204;-73
2022/12/07 12:38:59;;;;;;;7.77;7.20;;;5.90;99.90;;;;;;5071751;28;20173;-73
2022/12/07 12:44:19;;;;;;;6.73;6.23;;;5.70;99.90;;;;;;5071637;28;20190;-73
2022/12/07 12:46:54;;;;;;;7.07;6.57;;;5.70;99.90;;;;;;5053248;28;20221;-72
2022/12/07 12:49:20;;;;;;;8.80;8.10;;;5.70;99.90;;;;;;5071847;28;20189;-73
2022/12/07 12:51:58;;;;;;;10.67;9.77;;;5.70;99.90;;;;;;5053815;28;20177;-72
2022/12/07 12:54:25;;;;;;;9.37;8.57;;;5.70;99.90;;;;;;5071655;28;20451;-73
2022/12/07 12:56:51;;;;;;;9.17;7.50;;;5.60;99.90;;;;;;5053365;28;20674;-73
2022/12/07 12:59:28;;;;;;;9.23;8.40;;;5.60;99.90;;;;;;5071893;28;20185;-73
2022/12/07 13:02:14;;;;;;;10.53;9.67;;;5.70;99.90;;;;;;5071368;28;20676;-73
2022/12/07 13:04:55;;;;;;;11.90;10.80;;;5.60;99.90;;;;;;5072152;28;20215;-73